Time;durP1;ratioP1;P1;durP2;ratioP2;P2;SDS_P1;SDS_P2;PMS_P1;PMS_P2;Temp;Humidity;BMP_temperature;BMP_pressure;BME280_temperature;BME280_humidity;BME280_pressure;Samples;Min_cycle;Max_cycle;Signal;HPM_P1;HPM_P2
2022/03/27 00:42:09;;;;;;;15.50;10.60;;;6.70;96.30;;;;;;4949390;29;20486;-74
2022/03/27 00:44:36;;;;;;;16.40;10.97;;;6.70;96.30;;;;;;4955022;29;20411;-77
2022/03/27 00:47:02;;;;;;;14.53;9.93;;;6.60;96.30;;;;;;4954833;29;20237;-75
2022/03/27 00:49:28;;;;;;;13.37;9.67;;;6.60;96.30;;;;;;4937651;29;20498;-74
2022/03/27 00:51:54;;;;;;;16.10;10.00;;;6.60;96.30;;;;;;4954978;28;20293;-75
2022/03/27 00:54:20;;;;;;;15.23;10.30;;;6.50;96.30;;;;;;4961125;29;20446;-77
2022/03/27 00:56:48;;;;;;;14.93;10.27;;;6.50;96.30;;;;;;4949707;29;20449;-78
2022/03/27 00:59:14;;;;;;;15.40;10.60;;;6.50;96.30;;;;;;4939141;29;20394;-78
2022/03/27 04:00:19;;;;;;;25.80;15.17;;;3.40;96.30;;;;;;5965818;23;21401;-75
2022/03/27 04:02:44;;;;;;;22.03;14.40;;;3.50;96.30;;;;;;4995507;28;20816;-75
2022/03/27 04:05:10;;;;;;;20.50;12.97;;;3.30;96.30;;;;;;4977471;28;20236;-77
2022/03/27 04:07:35;;;;;;;26.87;13.73;;;3.30;96.30;;;;;;4976770;28;20290;-75
2022/03/27 04:10:03;;;;;;;22.20;14.33;;;3.30;96.30;;;;;;4977227;28;20253;-77
2022/03/27 04:12:29;;;;;;;24.17;13.57;;;3.40;96.30;;;;;;4993917;28;20664;-76
2022/03/27 04:14:54;;;;;;;20.70;14.87;;;3.50;96.30;;;;;;5003103;28;20459;-77
2022/03/27 04:17:20;;;;;;;22.17;14.00;;;3.40;96.30;;;;;;5002463;28;20177;-79
2022/03/27 04:19:45;;;;;;;22.17;13.47;;;3.40;96.30;;;;;;5005439;28;20177;-77
2022/03/27 07:54:53;;;;;;;10.70;9.60;;;21.30;76.70;;;;;;5696493;23;20483;-67
2022/03/27 07:57:20;;;;;;;9.60;8.70;;;21.90;73.60;;;;;;4975245;28;20405;-68
2022/03/27 07:59:47;;;;;;;10.37;8.90;;;21.30;74.80;;;;;;4974936;28;20264;-68
2022/03/27 08:02:13;;;;;;;9.83;8.90;;;21.20;75.10;;;;;;4991509;23;20543;-67
2022/03/27 08:04:38;;;;;;;11.30;9.00;;;21.50;75.00;;;;;;4975133;28;20901;-68
2022/03/27 08:07:04;;;;;;;8.50;7.60;;;21.10;74.90;;;;;;4974738;28;20200;-68
2022/03/27 08:09:29;;;;;;;12.10;6.80;;;21.40;75.70;;;;;;4966236;28;20530;-67
2022/03/27 08:11:55;;;;;;;6.43;5.73;;;20.90;74.80;;;;;;4970945;28;20211;-67
2022/03/27 08:14:22;;;;;;;6.60;6.00;;;20.60;75.30;;;;;;4953966;28;20293;-68
2022/03/27 08:16:47;;;;;;;8.87;7.20;;;21.10;72.20;;;;;;4936806;29;20779;-68
2022/03/27 08:19:13;;;;;;;9.67;7.23;;;20.90;73.20;;;;;;4949044;28;20415;-67
2022/03/27 08:21:39;;;;;;;7.43;6.73;;;20.90;72.70;;;;;;4955463;29;20202;-67
2022/03/27 08:24:06;;;;;;;7.47;6.00;;;20.40;73.30;;;;;;4954952;28;20187;-67
2022/03/27 08:29:16;;;;;;;8.53;6.60;;;19.50;73.00;;;;;;4953047;28;20417;-67
2022/03/27 08:31:41;;;;;;;15.53;5.83;;;20.00;73.70;;;;;;5031195;23;20492;-68
2022/03/27 08:34:07;;;;;;;5.07;4.60;;;19.90;74.20;;;;;;4973039;28;20785;-67
2022/03/27 08:36:33;;;;;;;7.90;5.77;;;20.10;72.00;;;;;;4971784;28;20178;-68
2022/03/27 08:38:59;;;;;;;8.20;4.83;;;20.20;70.00;;;;;;4972530;28;20563;-68
2022/03/27 08:41:44;;;;;;;4.67;3.73;;;20.00;74.60;;;;;;5012721;23;20499;-67
2022/03/27 08:44:18;;;;;;;7.10;5.10;;;20.10;70.40;;;;;;4993906;28;20153;-67
2022/03/27 08:46:46;;;;;;;7.93;5.60;;;19.80;71.80;;;;;;4993817;28;20423;-67
2022/03/27 08:49:40;;;;;;;5.80;5.00;;;18.60;72.40;;;;;;4993302;28;20500;-67
2022/03/27 08:52:23;;;;;;;5.53;4.90;;;18.60;75.30;;;;;;4993518;28;20784;-67
2022/03/27 08:55:03;;;;;;;6.43;4.80;;;18.10;74.30;;;;;;4993440;28;20543;-67
2022/03/27 08:57:37;;;;;;;5.03;4.53;;;18.50;77.60;;;;;;4993337;28;20555;-67
2022/03/27 09:00:04;;;;;;;7.20;5.10;;;18.90;75.20;;;;;;4993470;28;20404;-67
2022/03/27 09:02:30;;;;;;;5.50;4.43;;;19.60;69.90;;;;;;4975893;28;20424;-67
2022/03/27 09:04:56;;;;;;;5.53;4.17;;;19.70;70.00;;;;;;4993439;28;20413;-67
2022/03/27 09:07:27;;;;;;;4.30;3.90;;;19.50;70.50;;;;;;4993368;28;20178;-67
2022/03/27 09:09:54;;;;;;;5.10;4.20;;;19.50;69.60;;;;;;4993655;28;20474;-67
2022/03/27 09:12:20;;;;;;;6.60;4.77;;;19.70;69.60;;;;;;4992979;28;20921;-67
2022/03/27 09:14:46;;;;;;;8.00;4.20;;;19.70;68.50;;;;;;4993115;28;20539;-67
2022/03/27 09:17:14;;;;;;;4.37;3.97;;;20.60;69.40;;;;;;4990990;28;20505;-67
2022/03/27 09:19:43;;;;;;;5.77;4.33;;;20.30;70.80;;;;;;5058469;23;20497;-74
2022/03/27 09:22:21;;;;;;;5.40;4.10;;;20.20;65.20;;;;;;4972802;28;21027;-75
2022/03/27 09:24:55;;;;;;;3.17;2.87;;;18.00;68.50;;;;;;4973303;28;20394;-76
2022/03/27 09:27:34;;;;;;;5.07;3.30;;;17.00;69.90;;;;;;4973867;28;20406;-75
2022/03/27 09:30:07;;;;;;;5.53;4.30;;;16.40;75.30;;;;;;4973663;28;20901;-74
2022/03/27 09:32:41;;;;;;;4.70;3.57;;;17.90;72.50;;;;;;4973470;28;20472;-74
2022/03/27 09:35:15;;;;;;;6.40;3.27;;;17.60;72.70;;;;;;4973642;28;20488;-77
2022/03/27 09:37:42;;;;;;;4.57;2.87;;;18.90;73.90;;;;;;4971673;28;20410;-74
2022/03/27 09:40:10;;;;;;;3.77;2.87;;;18.80;66.80;;;;;;4973363;28;20850;-75
2022/03/27 09:42:38;;;;;;;4.20;3.13;;;18.10;70.60;;;;;;4973417;28;20409;-74
2022/03/27 09:45:23;;;;;;;6.50;2.63;;;18.00;70.70;;;;;;4973204;28;20414;-74
2022/03/27 09:47:53;;;;;;;3.27;2.97;;;17.70;67.00;;;;;;4972856;28;20416;-77
2022/03/27 09:50:33;;;;;;;3.97;2.63;;;17.30;68.90;;;;;;4973101;28;20438;-74
2022/03/27 09:53:17;;;;;;;4.53;2.63;;;16.80;71.00;;;;;;4973459;28;20452;-74
2022/03/27 09:55:42;;;;;;;3.27;2.30;;;18.20;76.00;;;;;;4973158;28;20465;-73
2022/03/27 09:58:09;;;;;;;2.60;2.27;;;19.40;68.10;;;;;;4972705;28;20410;-75
2022/03/27 10:00:35;;;;;;;7.07;2.90;;;19.70;67.20;;;;;;4971928;28;20194;-74
2022/03/27 10:03:09;;;;;;;2.50;2.30;;;20.40;67.60;;;;;;4972939;28;20488;-75
2022/03/27 10:05:35;;;;;;;2.67;2.30;;;19.40;63.50;;;;;;4971527;28;20622;-74
2022/03/27 10:08:01;;;;;;;3.30;2.57;;;18.50;64.10;;;;;;4952063;29;20432;-74
2022/03/27 10:10:28;;;;;;;4.83;2.50;;;17.80;66.20;;;;;;4953757;28;20229;-74
2022/03/27 10:12:56;;;;;;;5.23;3.20;;;17.70;66.30;;;;;;4953863;28;20984;-75
2022/03/27 10:15:27;;;;;;;3.47;3.17;;;17.80;70.10;;;;;;4953710;28;21157;-77
2022/03/27 10:17:57;;;;;;;4.40;3.67;;;17.20;70.40;;;;;;4953300;28;20863;-74
2022/03/27 10:20:27;;;;;;;3.90;3.50;;;17.10;71.90;;;;;;4952183;29;20458;-74
2022/03/27 10:23:04;;;;;;;3.70;3.40;;;17.40;73.50;;;;;;4954244;28;20405;-74
2022/03/27 10:25:50;;;;;;;6.60;4.20;;;17.10;70.10;;;;;;4953677;28;20410;-75
2022/03/27 10:28:18;;;;;;;5.13;3.90;;;16.60;72.30;;;;;;4953691;28;20391;-74
2022/03/27 10:30:44;;;;;;;6.10;4.50;;;16.20;73.00;;;;;;4958456;28;20439;-75
2022/03/27 10:33:11;;;;;;;7.20;5.47;;;16.70;79.10;;;;;;4953879;28;20901;-74
2022/03/27 10:36:21;;;;;;;7.70;4.43;;;17.60;79.00;;;;;;4952109;29;20513;-79
2022/03/27 10:39:02;;;;;;;5.70;5.07;;;17.90;76.60;;;;;;4969357;28;20515;-75
2022/03/27 10:41:36;;;;;;;4.97;4.47;;;17.40;75.50;;;;;;4972881;28;21018;-74
2022/03/27 10:44:07;;;;;;;4.53;3.50;;;17.50;74.20;;;;;;4972857;28;20413;-74
2022/03/27 10:46:34;;;;;;;5.87;3.70;;;16.60;76.40;;;;;;4971375;28;20773;-76
2022/03/27 10:49:16;;;;;;;7.03;4.87;;;16.80;77.30;;;;;;4971983;28;20414;-75
2022/03/27 10:51:44;;;;;;;5.30;4.17;;;16.60;75.70;;;;;;4968629;28;20453;-76
2022/03/27 10:54:12;;;;;;;4.10;3.37;;;16.50;76.60;;;;;;4962916;28;20453;-77
2022/03/27 10:56:50;;;;;;;5.53;3.70;;;16.70;72.50;;;;;;4976372;28;20413;-76
2022/03/27 10:59:18;;;;;;;5.27;4.50;;;17.00;75.10;;;;;;4962083;28;20450;-76
2022/03/27 11:01:52;;;;;;;4.30;3.83;;;16.30;74.50;;;;;;4957012;28;20898;-76
2022/03/27 11:04:23;;;;;;;4.93;4.27;;;15.50;75.20;;;;;;4955607;29;20410;-76
2022/03/27 11:06:51;;;;;;;4.80;3.90;;;15.70;76.30;;;;;;4955644;29;20509;-75
2022/03/27 11:09:35;;;;;;;5.10;3.90;;;15.80;77.70;;;;;;4956126;28;20434;-75
2022/03/27 11:12:03;;;;;;;4.20;3.80;;;16.00;77.60;;;;;;4956733;29;20402;-76
2022/03/27 11:15:02;;;;;;;5.13;3.80;;;16.30;77.60;;;;;;4955478;29;20604;-75
2022/03/27 11:17:43;;;;;;;5.07;4.10;;;16.40;76.70;;;;;;4956250;28;20725;-77
2022/03/27 11:20:31;;;;;;;5.53;4.20;;;16.40;76.50;;;;;;4956606;28;20460;-75
2022/03/27 11:22:59;;;;;;;5.83;4.37;;;16.50;79.80;;;;;;4955162;29;20494;-75
2022/03/27 11:25:45;;;;;;;7.63;4.67;;;16.80;77.20;;;;;;4956497;29;20435;-75
2022/03/27 11:28:16;;;;;;;5.93;4.40;;;17.40;80.20;;;;;;4955981;28;20424;-77
2022/03/27 11:30:50;;;;;;;4.70;4.10;;;17.70;78.10;;;;;;4956256;28;20765;-75
2022/03/27 11:33:26;;;;;;;5.20;4.63;;;17.30;74.80;;;;;;4956568;29;20406;-75
2022/03/27 11:36:01;;;;;;;4.47;4.07;;;16.50;73.00;;;;;;4955124;29;20520;-75
2022/03/27 11:38:31;;;;;;;8.20;4.03;;;16.40;75.10;;;;;;4955774;29;20979;-75
2022/03/27 11:40:57;;;;;;;6.70;3.97;;;16.20;76.20;;;;;;4956327;28;20434;-75
2022/03/27 11:43:27;;;;;;;8.30;4.33;;;16.20;74.00;;;;;;4956373;29;20418;-75
2022/03/27 11:45:56;;;;;;;6.17;4.47;;;16.30;74.40;;;;;;4956277;28;20184;-77
2022/03/27 11:48:21;;;;;;;5.73;4.40;;;16.80;79.70;;;;;;4962703;28;20914;-75
2022/03/27 11:50:47;;;;;;;4.87;3.90;;;17.00;78.30;;;;;;4975321;28;20438;-76
2022/03/27 11:53:12;;;;;;;5.00;3.73;;;16.90;75.30;;;;;;4975464;28;20209;-75
2022/03/27 11:55:39;;;;;;;7.93;4.60;;;16.40;74.90;;;;;;4975211;28;20194;-75
2022/03/27 11:58:07;;;;;;;6.50;4.70;;;16.30;76.50;;;;;;4973681;28;20681;-75
2022/03/27 12:00:37;;;;;;;4.43;3.83;;;16.30;76.90;;;;;;4973865;28;20953;-75
2022/03/27 12:03:22;;;;;;;4.53;3.77;;;16.40;77.60;;;;;;4974060;28;20406;-75
2022/03/27 12:05:49;;;;;;;6.93;4.60;;;16.40;74.20;;;;;;4974916;28;20425;-76
2022/03/27 12:08:17;;;;;;;4.87;4.43;;;16.50;77.60;;;;;;4974495;28;20453;-75
2022/03/27 12:10:46;;;;;;;5.90;4.77;;;16.60;76.80;;;;;;4975020;28;20430;-75
2022/03/27 12:13:14;;;;;;;4.73;3.93;;;16.70;74.80;;;;;;4974944;28;20413;-75
2022/03/27 12:15:42;;;;;;;6.40;4.20;;;16.50;75.80;;;;;;4975068;28;20445;-75
2022/03/27 12:18:08;;;;;;;5.53;4.40;;;16.10;76.00;;;;;;4974496;28;20421;-77
2022/03/27 12:20:49;;;;;;;6.20;4.20;;;16.90;78.70;;;;;;4974734;28;20496;-76
2022/03/27 12:23:22;;;;;;;5.23;3.87;;;17.00;74.50;;;;;;4974766;28;20248;-75
2022/03/27 12:25:57;;;;;;;5.83;4.50;;;16.40;76.00;;;;;;4974861;28;20445;-75
2022/03/27 12:31:18;;;;;;;4.93;4.30;;;16.40;74.80;;;;;;4974787;28;20417;-77
2022/03/27 12:33:44;;;;;;;4.90;3.70;;;16.30;77.20;;;;;;4971898;28;20410;-76
2022/03/27 12:36:10;;;;;;;4.50;4.10;;;16.50;75.20;;;;;;4972135;28;20417;-77
2022/03/27 12:38:37;;;;;;;5.57;4.03;;;16.30;77.10;;;;;;4974319;28;20250;-76
2022/03/27 12:41:03;;;;;;;4.70;3.90;;;16.00;75.90;;;;;;4974600;28;20280;-77
2022/03/27 12:43:29;;;;;;;5.40;4.00;;;16.00;75.70;;;;;;4974661;28;20827;-75
2022/03/27 12:45:55;;;;;;;3.73;3.40;;;16.50;75.60;;;;;;4974429;28;20268;-77
2022/03/27 12:48:25;;;;;;;3.90;3.47;;;16.90;74.30;;;;;;4973887;28;20179;-76
2022/03/27 12:50:53;;;;;;;3.77;3.43;;;17.20;78.50;;;;;;4974497;28;20917;-76
2022/03/27 12:53:19;;;;;;;5.83;3.97;;;17.30;75.00;;;;;;4974496;28;20508;-77
2022/03/27 12:55:46;;;;;;;4.10;3.60;;;16.90;75.20;;;;;;4974564;28;20450;-79
2022/03/27 12:58:13;;;;;;;3.37;3.03;;;16.30;74.20;;;;;;4973770;28;20484;-77
2022/03/27 13:00:43;;;;;;;5.33;3.73;;;16.30;76.30;;;;;;4974176;28;20767;-76
2022/03/27 13:03:09;;;;;;;3.30;2.93;;;16.80;77.40;;;;;;4972978;28;20429;-77
2022/03/27 13:05:35;;;;;;;4.37;3.30;;;17.00;74.00;;;;;;4974153;28;20417;-78
2022/03/27 13:08:00;;;;;;;4.13;3.37;;;16.60;71.80;;;;;;4972709;28;20179;-77
2022/03/27 13:10:27;;;;;;;3.83;2.87;;;16.80;74.60;;;;;;4974202;28;20198;-78
2022/03/27 13:13:07;;;;;;;2.77;2.53;;;16.50;74.00;;;;;;4974086;28;20265;-77
2022/03/27 13:15:47;;;;;;;3.60;3.30;;;16.60;75.20;;;;;;4973324;28;20456;-76
2022/03/27 13:18:17;;;;;;;6.13;3.13;;;16.70;72.50;;;;;;4972256;28;20972;-77
2022/03/27 13:20:44;;;;;;;3.87;2.77;;;16.70;71.50;;;;;;4973750;28;20460;-77
2022/03/27 13:23:09;;;;;;;7.00;3.23;;;16.70;72.70;;;;;;4973954;28;20476;-75
2022/03/27 13:25:36;;;;;;;3.77;3.17;;;17.10;73.50;;;;;;4972924;28;20417;-75
2022/03/27 13:28:02;;;;;;;3.90;3.10;;;17.10;76.60;;;;;;4973405;28;20177;-77
2022/03/27 13:30:28;;;;;;;3.60;3.30;;;17.20;74.30;;;;;;4973763;28;20434;-77
2022/03/27 13:32:57;;;;;;;3.53;2.63;;;17.00;76.60;;;;;;4973713;28;20869;-77
2022/03/27 13:35:24;;;;;;;3.03;2.73;;;17.20;71.90;;;;;;4973566;28;20244;-78
2022/03/27 13:37:51;;;;;;;2.80;2.60;;;17.60;77.40;;;;;;4973202;28;20549;-75
2022/03/27 13:40:16;;;;;;;4.57;3.20;;;18.20;73.10;;;;;;4973613;28;20441;-74
2022/03/27 13:43:00;;;;;;;3.30;3.00;;;18.00;73.80;;;;;;4973676;28;20406;-75
2022/03/27 13:45:27;;;;;;;3.10;2.80;;;17.90;72.00;;;;;;4973653;28;20185;-75
2022/03/27 13:47:53;;;;;;;3.87;2.57;;;18.00;73.60;;;;;;4972977;28;20421;-75
2022/03/27 13:50:19;;;;;;;3.50;2.87;;;17.80;73.00;;;;;;4973248;28;20912;-77
2022/03/27 13:52:45;;;;;;;4.00;3.27;;;18.00;72.80;;;;;;4973817;28;20186;-74
2022/03/27 13:55:11;;;;;;;5.27;2.83;;;18.10;73.10;;;;;;4973357;28;20457;-74
2022/03/27 13:57:37;;;;;;;4.20;2.87;;;;;;;;;;4973021;28;20182;-76
2022/03/27 14:00:04;;;;;;;3.93;2.70;;;17.10;74.70;;;;;;4973397;28;20728;-74
2022/03/27 14:02:29;;;;;;;3.03;2.33;;;17.10;72.90;;;;;;4973507;28;20196;-76
2022/03/27 14:04:57;;;;;;;3.47;2.60;;;17.00;71.40;;;;;;4973318;28;20969;-75
2022/03/27 14:07:23;;;;;;;3.50;2.73;;;17.30;76.60;;;;;;4973342;28;20202;-75
2022/03/27 14:09:48;;;;;;;2.83;2.63;;;17.40;75.80;;;;;;4973148;28;20441;-75
2022/03/27 14:12:14;;;;;;;4.30;3.30;;;17.80;72.50;;;;;;4978199;28;20413;-76
2022/03/27 14:14:39;;;;;;;3.27;2.67;;;17.70;72.50;;;;;;4972588;28;20202;-75
2022/03/27 14:17:07;;;;;;;3.33;3.00;;;17.80;72.30;;;;;;4973456;28;20181;-75
2022/03/27 14:19:33;;;;;;;6.00;2.87;;;18.10;73.70;;;;;;4972582;28;20213;-79
2022/03/27 14:21:58;;;;;;;3.77;3.40;;;18.10;73.60;;;;;;4973121;28;20480;-78
2022/03/27 14:24:24;;;;;;;3.70;2.40;;;18.30;71.60;;;;;;4973587;28;20210;-79
2022/03/27 14:26:49;;;;;;;2.53;2.30;;;18.20;69.10;;;;;;4975242;28;20210;-78
2022/03/27 14:29:17;;;;;;;5.80;3.33;;;17.40;75.00;;;;;;4975525;28;20268;-78
2022/03/27 14:31:42;;;;;;;3.83;3.10;;;17.40;71.60;;;;;;4977249;28;20182;-78
2022/03/27 14:34:07;;;;;;;5.63;3.43;;;17.60;70.70;;;;;;4977016;28;20448;-78
2022/03/27 14:36:33;;;;;;;3.33;2.50;;;17.60;74.40;;;;;;4977262;28;20546;-78
2022/03/27 14:38:59;;;;;;;3.40;2.80;;;18.00;73.70;;;;;;4976906;28;20243;-78
2022/03/27 14:41:24;;;;;;;5.67;3.07;;;18.10;72.20;;;;;;4977195;28;20173;-79
2022/03/27 14:43:50;;;;;;;3.33;2.73;;;17.90;73.80;;;;;;4977175;28;20656;-79
2022/03/27 14:46:16;;;;;;;3.00;2.50;;;17.90;73.70;;;;;;4977022;28;20176;-78
2022/03/27 14:48:42;;;;;;;5.43;2.47;;;17.90;73.90;;;;;;4976658;28;20697;-78
2022/03/27 14:51:08;;;;;;;3.10;2.63;;;18.00;74.90;;;;;;4967859;28;20222;-77
2022/03/27 14:55:57;;;;;;;2.90;2.40;;;18.20;70.20;;;;;;4965596;28;20941;-77
2022/03/27 14:56:21;;;;;;;4.57;2.97;;;17.70;72.40;;;;;;4976640;28;20182;-79
2022/03/27 14:58:46;;;;;;;3.70;2.80;;;17.00;73.60;;;;;;4963749;28;20617;-79
2022/03/27 15:01:12;;;;;;;3.13;2.83;;;17.00;77.40;;;;;;4955908;29;20509;-78
2022/03/27 15:03:39;;;;;;;4.50;3.37;;;17.30;74.40;;;;;;4968622;28;20188;-78
2022/03/27 15:06:05;;;;;;;2.90;2.60;;;17.10;73.60;;;;;;4976711;28;20220;-79
2022/03/27 15:08:30;;;;;;;5.50;2.73;;;16.60;74.70;;;;;;4976579;28;20831;-77
2022/03/27 15:10:59;;;;;;;2.70;2.50;;;16.40;75.50;;;;;;4974179;28;20221;-77
2022/03/27 15:13:26;;;;;;;3.73;2.93;;;16.70;77.90;;;;;;4971541;28;20179;-79
2022/03/27 15:15:51;;;;;;;3.20;2.90;;;17.00;75.90;;;;;;4966367;28;20450;-79
2022/03/27 15:18:17;;;;;;;3.40;3.07;;;16.80;75.20;;;;;;4956696;29;20418;-79
2022/03/27 15:20:43;;;;;;;4.30;3.20;;;16.40;76.80;;;;;;4971663;28;20228;-78
2022/03/27 15:23:10;;;;;;;5.53;2.70;;;16.00;77.80;;;;;;4977087;28;20175;-79
2022/03/27 15:25:35;;;;;;;3.30;2.47;;;16.00;78.60;;;;;;4976302;28;20437;-78
2022/03/27 15:28:01;;;;;;;5.10;3.10;;;16.00;80.80;;;;;;4971429;28;20431;-78
2022/03/27 15:30:27;;;;;;;4.50;3.10;;;15.80;78.90;;;;;;4956165;29;20203;-78
2022/03/27 15:32:53;;;;;;;6.00;3.07;;;15.80;78.90;;;;;;4957737;29;20261;-79
2022/03/27 15:35:20;;;;;;;4.40;2.87;;;15.40;80.20;;;;;;4958859;29;20537;-78
2022/03/27 15:37:47;;;;;;;3.50;3.20;;;15.30;80.30;;;;;;4956718;28;20634;-79
2022/03/27 15:40:17;;;;;;;3.67;3.30;;;15.10;82.00;;;;;;4956311;29;20442;-79
2022/03/27 15:42:44;;;;;;;4.07;3.03;;;15.00;82.30;;;;;;4956092;29;20441;-79
2022/03/27 15:45:10;;;;;;;3.10;2.80;;;14.90;82.10;;;;;;4962371;28;20484;-79
2022/03/27 15:47:36;;;;;;;4.13;3.20;;;14.90;83.20;;;;;;4976543;28;20416;-79
2022/03/27 15:50:02;;;;;;;4.70;3.30;;;14.80;84.50;;;;;;4975716;28;20536;-78
2022/03/27 15:52:28;;;;;;;5.30;4.37;;;14.60;84.90;;;;;;4976422;28;20273;-79
2022/03/27 15:54:53;;;;;;;5.43;3.80;;;14.80;86.10;;;;;;4977451;28;20488;-79
2022/03/27 15:57:19;;;;;;;8.17;3.97;;;14.70;85.30;;;;;;4977370;28;20253;-79
2022/03/27 15:59:45;;;;;;;3.93;3.40;;;14.50;84.70;;;;;;4976751;28;20186;-79
2022/03/27 16:02:10;;;;;;;5.03;4.13;;;14.40;85.50;;;;;;4977813;28;20178;-79
2022/03/27 16:04:36;;;;;;;5.37;4.70;;;14.40;87.40;;;;;;4975752;28;20178;-77
2022/03/27 16:07:03;;;;;;;11.83;4.17;;;14.40;88.50;;;;;;4976200;28;20737;-77
2022/03/27 16:09:29;;;;;;;4.90;4.17;;;14.40;87.80;;;;;;4974695;28;20976;-75
2022/03/27 16:11:54;;;;;;;4.90;4.40;;;14.30;87.70;;;;;;4973714;28;20421;-74
2022/03/27 16:14:20;;;;;;;8.03;5.47;;;14.10;87.90;;;;;;4975243;28;20552;-79
2022/03/27 16:16:45;;;;;;;4.57;4.10;;;13.90;89.60;;;;;;4975248;28;20262;-78
2022/03/27 16:19:15;;;;;;;6.27;4.53;;;13.70;89.80;;;;;;4969380;28;20221;-77
2022/03/27 16:21:42;;;;;;;6.20;4.70;;;13.50;91.10;;;;;;4956343;29;20175;-78
2022/03/27 16:24:07;;;;;;;4.63;4.03;;;13.40;90.90;;;;;;4956442;29;20929;-78
2022/03/27 16:26:33;;;;;;;7.60;4.07;;;13.20;91.00;;;;;;4956583;29;20466;-77
2022/03/27 16:28:58;;;;;;;4.37;3.77;;;13.10;91.20;;;;;;4956628;29;20639;-78
2022/03/27 16:31:24;;;;;;;4.83;3.60;;;13.10;92.80;;;;;;4956120;29;20250;-77
2022/03/27 16:33:49;;;;;;;6.57;3.47;;;12.90;92.80;;;;;;4955397;29;20631;-78
2022/03/27 16:36:15;;;;;;;4.30;3.40;;;12.80;93.80;;;;;;4956542;29;20179;-78
2022/03/27 16:38:42;;;;;;;5.33;3.57;;;12.70;95.60;;;;;;4957353;29;20175;-78
2022/03/27 16:41:08;;;;;;;4.53;3.50;;;12.70;96.20;;;;;;4958251;28;20466;-79
2022/03/27 16:43:34;;;;;;;4.07;3.67;;;12.50;95.40;;;;;;4971072;28;20421;-80
2022/03/27 16:45:59;;;;;;;6.57;3.27;;;12.40;95.50;;;;;;4971384;28;20425;-78
2022/03/27 16:48:25;;;;;;;4.70;3.73;;;12.40;95.70;;;;;;4973859;28;20174;-82
2022/03/27 16:50:51;;;;;;;3.90;3.03;;;12.20;96.30;;;;;;4975174;28;20563;-80
2022/03/27 16:53:18;;;;;;;4.47;3.57;;;12.00;96.30;;;;;;4975600;28;20155;-80
2022/03/27 16:55:44;;;;;;;4.07;3.40;;;12.00;96.30;;;;;;4974355;28;20202;-81
2022/03/27 16:58:10;;;;;;;4.60;3.33;;;11.70;96.30;;;;;;4976174;28;20493;-79
2022/03/27 17:00:36;;;;;;;4.43;3.40;;;11.40;96.30;;;;;;4976149;28;20512;-80
2022/03/27 17:03:01;;;;;;;4.80;3.90;;;11.30;96.30;;;;;;4975815;28;20178;-76
2022/03/27 17:05:27;;;;;;;5.17;4.20;;;11.10;96.30;;;;;;4974337;28;20624;-77
2022/03/27 17:07:52;;;;;;;4.93;3.37;;;10.90;96.30;;;;;;4972549;28;20233;-77
2022/03/27 17:10:20;;;;;;;11.13;3.60;;;;;;;;;;4974242;28;20240;-77
2022/03/27 17:12:46;;;;;;;4.47;3.23;;;10.50;96.30;;;;;;4973903;28;20216;-78
2022/03/27 17:15:12;;;;;;;4.70;3.13;;;10.50;96.30;;;;;;4972433;28;20457;-77
2022/03/27 17:17:38;;;;;;;3.60;3.30;;;10.20;96.30;;;;;;4973586;28;20174;-77
2022/03/27 17:20:05;;;;;;;4.47;3.60;;;10.00;96.30;;;;;;4961142;28;20477;-76
2022/03/27 17:22:31;;;;;;;4.20;3.50;;;9.80;96.30;;;;;;4962693;28;20178;-77
2022/03/27 17:24:57;;;;;;;4.03;3.10;;;9.70;96.30;;;;;;4973321;28;20417;-76
2022/03/27 17:27:23;;;;;;;4.63;3.90;;;9.60;96.30;;;;;;4973023;28;20417;-76
2022/03/27 17:29:48;;;;;;;6.10;4.40;;;9.40;96.30;;;;;;4973435;28;20202;-75
2022/03/27 17:32:15;;;;;;;6.73;3.27;;;9.30;96.30;;;;;;4973838;28;20182;-76
2022/03/27 17:34:41;;;;;;;4.33;3.63;;;9.20;96.30;;;;;;4974050;28;20195;-75
2022/03/27 17:37:07;;;;;;;4.33;3.30;;;9.00;96.30;;;;;;4974287;28;20456;-77
2022/03/27 17:39:34;;;;;;;4.87;3.50;;;9.00;96.30;;;;;;4973223;28;20430;-76
2022/03/27 17:42:01;;;;;;;4.60;3.80;;;8.90;96.30;;;;;;4973709;28;20592;-75
2022/03/27 17:44:26;;;;;;;4.57;3.57;;;8.70;96.30;;;;;;4973593;28;20841;-77
2022/03/27 17:46:53;;;;;;;5.00;3.50;;;8.60;96.30;;;;;;4972299;28;20450;-77
2022/03/27 17:49:20;;;;;;;7.80;4.30;;;8.40;96.30;;;;;;4972892;28;20603;-77
2022/03/27 17:51:46;;;;;;;4.40;3.67;;;8.40;96.30;;;;;;4972305;28;20472;-77
2022/03/27 17:54:12;;;;;;;5.37;3.50;;;8.40;96.30;;;;;;4973579;28;20418;-78
2022/03/27 17:56:38;;;;;;;6.67;4.00;;;8.30;96.30;;;;;;4973426;28;20497;-78
2022/03/27 17:59:04;;;;;;;8.33;3.90;;;8.20;96.30;;;;;;4973141;28;20170;-76
2022/03/27 18:01:29;;;;;;;4.20;3.80;;;8.20;96.30;;;;;;4973484;28;20181;-76
2022/03/27 18:03:56;;;;;;;8.03;4.40;;;8.20;96.30;;;;;;4973649;28;20414;-77
2022/03/27 18:06:22;;;;;;;7.03;3.60;;;8.10;96.30;;;;;;4973726;28;20221;-78
2022/03/27 18:08:48;;;;;;;4.90;4.00;;;8.00;96.30;;;;;;4973793;28;20421;-76
2022/03/27 18:11:14;;;;;;;6.00;4.77;;;7.90;96.30;;;;;;4970470;28;21020;-75
2022/03/27 18:13:40;;;;;;;4.80;4.00;;;7.90;96.30;;;;;;4954011;29;20418;-77
2022/03/27 18:16:11;;;;;;;5.10;4.37;;;7.80;96.30;;;;;;4953523;29;20195;-77
2022/03/27 18:18:37;;;;;;;4.73;3.77;;;7.70;96.30;;;;;;4954543;28;20171;-77
2022/03/27 18:21:02;;;;;;;4.20;3.63;;;7.60;96.30;;;;;;4967321;28;20481;-79
2022/03/27 18:23:28;;;;;;;4.57;4.17;;;7.50;96.30;;;;;;4963869;28;20175;-75
2022/03/27 18:25:54;;;;;;;4.90;3.73;;;7.50;96.30;;;;;;4954000;29;20226;-76
2022/03/27 18:28:22;;;;;;;5.80;3.87;;;7.40;96.30;;;;;;4953414;29;20546;-75
2022/03/27 18:30:48;;;;;;;5.50;3.77;;;7.40;96.30;;;;;;4969272;28;20496;-77
2022/03/27 18:33:13;;;;;;;5.93;4.37;;;7.40;96.30;;;;;;4974676;28;20946;-78
2022/03/27 18:35:40;;;;;;;4.93;3.97;;;7.30;96.30;;;;;;4975146;28;20280;-76
2022/03/27 18:38:06;;;;;;;4.10;3.70;;;7.30;96.30;;;;;;4975940;28;20585;-75
2022/03/27 18:40:31;;;;;;;5.80;4.10;;;7.40;96.30;;;;;;4975154;28;20437;-77
2022/03/27 18:42:57;;;;;;;5.30;4.27;;;7.30;96.30;;;;;;4974751;28;20174;-76
2022/03/27 18:45:23;;;;;;;6.67;4.27;;;7.30;96.30;;;;;;4964057;28;20277;-76
2022/03/27 18:47:49;;;;;;;5.33;4.33;;;7.30;96.30;;;;;;4977676;28;20178;-82
2022/03/27 18:50:15;;;;;;;3.90;3.50;;;7.30;96.30;;;;;;4996400;28;20497;-83
2022/03/27 18:52:40;;;;;;;8.27;3.77;;;7.30;96.30;;;;;;4997190;28;20226;-79
2022/03/27 18:55:08;;;;;;;5.57;3.80;;;7.30;96.30;;;;;;4998500;28;20202;-79
2022/03/27 18:57:33;;;;;;;8.80;4.37;;;7.30;96.30;;;;;;4983730;28;20186;-75
2022/03/27 18:59:59;;;;;;;5.43;3.97;;;7.40;96.30;;;;;;4973842;28;20449;-75
2022/03/27 19:02:26;;;;;;;4.33;3.50;;;7.30;96.30;;;;;;4973308;28;20638;-75
2022/03/27 19:04:52;;;;;;;4.03;3.50;;;7.30;96.30;;;;;;4971779;28;20985;-75
2022/03/27 19:07:17;;;;;;;5.60;3.80;;;7.30;96.30;;;;;;4972966;28;20425;-75
2022/03/27 19:09:43;;;;;;;5.13;3.83;;;7.20;96.30;;;;;;4972752;28;20571;-75
2022/03/27 19:12:16;;;;;;;4.47;3.50;;;7.20;96.30;;;;;;4972486;28;20185;-78
2022/03/27 19:14:43;;;;;;;3.90;3.40;;;7.10;96.30;;;;;;4976607;28;20721;-75
2022/03/27 19:17:23;;;;;;;7.10;4.37;;;7.00;96.30;;;;;;4976318;28;20545;-75
2022/03/27 19:19:57;;;;;;;7.80;5.10;;;7.10;96.30;;;;;;4975977;28;20460;-76
2022/03/27 19:22:31;;;;;;;9.90;6.73;;;7.10;96.30;;;;;;4974839;28;20479;-74
2022/03/27 19:24:59;;;;;;;11.83;7.97;;;7.00;96.30;;;;;;4974919;28;20430;-74
2022/03/27 19:27:24;;;;;;;10.10;7.23;;;6.90;96.30;;;;;;4976084;28;20390;-77
2022/03/27 19:29:50;;;;;;;13.20;8.37;;;6.80;96.30;;;;;;4975909;28;20432;-75
2022/03/27 19:32:15;;;;;;;12.27;7.70;;;6.70;96.30;;;;;;4974858;28;20261;-75
2022/03/27 19:34:41;;;;;;;6.70;5.30;;;6.60;96.30;;;;;;4975930;28;20198;-76
2022/03/27 19:37:07;;;;;;;6.53;5.33;;;6.40;96.30;;;;;;4974746;28;20170;-77
2022/03/27 19:39:32;;;;;;;7.00;4.73;;;6.30;96.30;;;;;;4974431;28;20701;-75
2022/03/27 19:41:58;;;;;;;6.10;4.47;;;6.20;96.30;;;;;;4975802;28;20174;-76
2022/03/27 19:44:23;;;;;;;5.90;4.47;;;6.10;96.30;;;;;;4974895;28;20178;-77
2022/03/27 19:46:49;;;;;;;7.97;5.40;;;5.90;96.30;;;;;;4975710;28;20255;-74
2022/03/27 19:49:14;;;;;;;4.90;4.40;;;6.00;96.30;;;;;;4975471;28;20202;-75
2022/03/27 19:51:40;;;;;;;6.00;4.13;;;5.90;96.30;;;;;;4975709;28;20189;-75
2022/03/27 19:54:06;;;;;;;5.90;5.30;;;5.90;96.30;;;;;;4974257;28;20552;-74
2022/03/27 19:56:32;;;;;;;7.10;5.10;;;5.80;96.30;;;;;;4974259;28;20546;-76
2022/03/27 19:58:58;;;;;;;6.10;5.10;;;5.90;96.30;;;;;;4973888;28;20426;-74
2022/03/27 20:01:24;;;;;;;6.30;4.33;;;6.00;96.30;;;;;;4975656;28;20256;-74
2022/03/27 20:03:49;;;;;;;6.50;5.10;;;6.00;96.30;;;;;;4974196;28;20918;-74
2022/03/27 20:06:15;;;;;;;6.73;4.60;;;5.90;96.30;;;;;;4974115;28;20174;-77
2022/03/27 20:08:40;;;;;;;6.07;4.40;;;5.80;96.30;;;;;;4966901;28;20600;-77
2022/03/27 20:11:07;;;;;;;7.60;4.70;;;5.60;96.30;;;;;;4972388;28;20229;-79